createdAt,value
2022-11-05T00:00:31.001Z,100.00
2022-11-05T00:03:16.938Z,100.00
2022-11-05T00:06:03.700Z,100.00
2022-11-05T00:08:50.029Z,100.00
2022-11-05T00:11:39.480Z,100.00
2022-11-05T00:14:26.417Z,100.00
2022-11-05T00:16:56.273Z,100.00
2022-11-05T00:19:24.562Z,100.00
2022-11-05T00:22:09.924Z,100.00
2022-11-05T00:24:55.193Z,100.00
2022-11-05T00:27:25.226Z,100.00
2022-11-05T00:29:53.426Z,100.00
2022-11-05T00:32:21.484Z,100.00
2022-11-05T00:34:50.033Z,100.00
2022-11-05T00:37:18.080Z,100.00
2022-11-05T00:39:46.176Z,100.00
2022-11-05T00:42:32.074Z,100.00
2022-11-05T00:45:02.255Z,100.00
2022-11-05T00:47:50.756Z,100.00
2022-11-05T00:50:19.687Z,100.00
2022-11-05T00:52:58.253Z,100.00
2022-11-05T00:55:33.585Z,100.00
2022-11-05T00:58:05.342Z,100.00
2022-11-05T01:00:37.355Z,100.00
2022-11-05T01:03:07.907Z,100.00
2022-11-05T01:05:41.712Z,100.00
2022-11-05T01:08:12.648Z,100.00
2022-11-05T01:10:45.756Z,100.00
2022-11-05T01:13:15.903Z,100.00
2022-11-05T01:15:47.065Z,100.00
2022-11-05T01:18:15.875Z,100.00
2022-11-05T01:20:44.114Z,100.00
2022-11-05T01:23:13.881Z,100.00
2022-11-05T01:25:42.821Z,100.00
2022-11-05T01:28:11.764Z,100.00
2022-11-05T01:30:40.734Z,100.00
2022-11-05T01:33:12.684Z,100.00
2022-11-05T01:35:41.396Z,100.00
2022-11-05T01:38:10.852Z,100.00
2022-11-05T01:40:44.573Z,100.00
2022-11-05T01:43:19.280Z,100.00
2022-11-05T01:45:51.420Z,100.00
2022-11-05T01:48:23.059Z,100.00
2022-11-05T01:50:58.918Z,100.00
2022-11-05T01:53:32.418Z,100.00
2022-11-05T01:56:04.829Z,100.00
2022-11-05T01:58:38.788Z,100.00
2022-11-05T02:01:07.373Z,100.00
2022-11-05T02:03:37.667Z,100.00
2022-11-05T02:06:09.570Z,100.00
2022-11-05T02:08:54.347Z,100.00
2022-11-05T02:11:22.885Z,100.00
2022-11-05T02:13:52.220Z,100.00
2022-11-05T02:16:33.547Z,100.00
2022-11-05T02:19:19.045Z,100.00
2022-11-05T02:22:28.428Z,100.00
2022-11-05T02:25:04.175Z,100.00
2022-11-05T02:28:14.630Z,100.00
2022-11-05T02:30:51.072Z,100.00
2022-11-05T02:33:37.321Z,100.00
2022-11-05T02:36:21.003Z,100.00
2022-11-05T02:39:00.604Z,100.00
2022-11-05T02:41:41.667Z,100.00
2022-11-05T02:44:20.893Z,100.00
2022-11-05T02:46:59.109Z,100.00
2022-11-05T02:49:43.015Z,100.00
2022-11-05T02:52:23.140Z,100.00
2022-11-05T02:55:00.914Z,100.00
2022-11-05T02:57:31.125Z,100.00
2022-11-05T03:00:03.255Z,100.00
2022-11-05T03:02:33.715Z,100.00
2022-11-05T03:05:06.056Z,100.00
2022-11-05T03:07:45.400Z,100.00
2022-11-05T03:10:27.018Z,100.00
2022-11-05T03:13:06.005Z,100.00
2022-11-05T03:15:45.978Z,100.00
2022-11-05T03:18:20.306Z,100.00
2022-11-05T03:20:52.256Z,100.00
2022-11-05T03:23:28.106Z,100.00
2022-11-05T03:26:03.461Z,100.00
2022-11-05T03:28:37.048Z,100.00
2022-11-05T03:31:07.824Z,100.00
2022-11-05T03:33:40.149Z,100.00
2022-11-05T03:36:16.282Z,100.00
2022-11-05T03:38:50.498Z,100.00
2022-11-05T03:41:20.605Z,100.00
2022-11-05T03:43:51.744Z,100.00
2022-11-05T03:46:29.476Z,100.00
2022-11-05T03:49:04.793Z,100.00
2022-11-05T03:51:40.303Z,100.00
2022-11-05T03:54:10.109Z,100.00
2022-11-05T03:56:43.733Z,100.00
2022-11-05T03:59:13.591Z,100.00
2022-11-05T04:01:44.303Z,100.00
2022-11-05T04:04:14.053Z,100.00
2022-11-05T04:07:08.808Z,100.00
2022-11-05T04:09:54.696Z,100.00
2022-11-05T04:12:40.703Z,100.00
2022-11-05T04:15:10.104Z,100.00
2022-11-05T04:17:37.233Z,100.00
2022-11-05T04:20:24.681Z,100.00
2022-11-05T04:23:32.178Z,100.00
2022-11-05T04:26:04.891Z,100.00
2022-11-05T04:28:47.131Z,100.00
2022-11-05T04:31:15.290Z,100.00
2022-11-05T04:33:43.727Z,100.00
2022-11-05T04:36:13.526Z,100.00
2022-11-05T04:38:43.847Z,100.00
2022-11-05T04:41:16.308Z,100.00
2022-11-05T04:43:45.096Z,100.00
2022-11-05T04:46:13.683Z,100.00
2022-11-05T04:48:42.261Z,100.00
2022-11-05T04:51:10.610Z,100.00
2022-11-05T04:53:40.196Z,100.00
2022-11-05T04:56:12.536Z,100.00
2022-11-05T04:58:41.408Z,100.00
2022-11-05T05:01:14.995Z,100.00
2022-11-05T05:03:44.651Z,100.00
2022-11-05T05:06:13.485Z,100.00
2022-11-05T05:08:43.769Z,100.00
2022-11-05T05:11:13.917Z,100.00
2022-11-05T05:13:42.017Z,100.00
2022-11-05T05:16:13.191Z,100.00
2022-11-05T05:18:46.036Z,100.00
2022-11-05T05:21:32.612Z,100.00
2022-11-05T05:24:02.117Z,100.00
2022-11-05T05:26:30.796Z,100.00
2022-11-05T05:28:59.312Z,100.00
2022-11-05T05:31:29.082Z,100.00
2022-11-05T05:33:57.488Z,100.00
2022-11-05T05:36:27.631Z,100.00
2022-11-05T05:38:56.036Z,100.00
2022-11-05T05:41:25.687Z,100.00
2022-11-05T05:43:54.137Z,100.00
2022-11-05T05:46:22.107Z,100.00
2022-11-05T05:48:52.168Z,100.00
2022-11-05T05:51:20.922Z,100.00
2022-11-05T05:53:49.443Z,100.00
2022-11-05T05:56:20.725Z,100.00
2022-11-05T05:58:50.632Z,100.00
2022-11-05T06:01:20.146Z,100.00
2022-11-05T06:03:50.663Z,100.00
2022-11-05T06:06:21.346Z,100.00
2022-11-05T06:08:50.973Z,100.00
2022-11-05T06:11:19.777Z,100.00
2022-11-05T06:13:49.626Z,100.00
2022-11-05T06:16:19.597Z,100.00
2022-11-05T06:18:48.845Z,100.00
2022-11-05T06:21:18.607Z,100.00
2022-11-05T06:23:48.466Z,100.00
2022-11-05T06:26:19.041Z,100.00
2022-11-05T06:28:47.888Z,100.00
2022-11-05T06:31:18.178Z,100.00
2022-11-05T06:33:47.519Z,100.00
2022-11-05T06:36:18.569Z,100.00
2022-11-05T06:38:46.591Z,100.00
2022-11-05T06:41:15.534Z,100.00
2022-11-05T06:43:44.321Z,100.00
2022-11-05T06:46:13.557Z,100.00
2022-11-05T06:48:42.931Z,100.00
2022-11-05T06:51:10.919Z,100.00
2022-11-05T06:53:38.991Z,100.00
2022-11-05T06:56:09.029Z,100.00
2022-11-05T06:58:36.982Z,100.00
2022-11-05T07:01:10.173Z,100.00
2022-11-05T07:03:39.593Z,100.00
2022-11-05T07:06:09.934Z,100.00
2022-11-05T07:08:39.362Z,100.00
2022-11-05T07:11:07.406Z,100.00
2022-11-05T07:13:36.728Z,100.00
2022-11-05T07:16:07.627Z,100.00
2022-11-05T07:18:36.499Z,100.00
2022-11-05T07:21:05.580Z,100.00
2022-11-05T07:23:35.554Z,100.00
2022-11-05T07:26:04.174Z,100.00
2022-11-05T07:28:32.276Z,100.00
2022-11-05T07:31:00.400Z,100.00
2022-11-05T07:33:36.340Z,100.00
2022-11-05T07:36:05.374Z,100.00
2022-11-05T07:38:35.370Z,100.00
2022-11-05T07:41:03.376Z,100.00
2022-11-05T07:43:32.864Z,100.00
2022-11-05T07:46:01.209Z,100.00
2022-11-05T07:48:29.316Z,100.00
2022-11-05T07:50:58.150Z,100.00
2022-11-05T07:53:26.382Z,100.00
2022-11-05T07:55:57.493Z,100.00
2022-11-05T07:58:26.341Z,100.00
2022-11-05T08:00:55.906Z,100.00
2022-11-05T08:03:24.722Z,100.00
2022-11-05T08:05:53.268Z,100.00
2022-11-05T08:08:22.765Z,100.00
2022-11-05T08:10:51.102Z,100.00
2022-11-05T08:13:20.671Z,100.00
2022-11-05T08:15:49.311Z,100.00
2022-11-05T08:18:20.335Z,100.00
2022-11-05T08:20:48.954Z,100.00
2022-11-05T08:23:17.626Z,100.00
2022-11-05T08:25:45.885Z,100.00
2022-11-05T08:28:14.475Z,100.00
2022-11-05T08:30:46.956Z,100.00
2022-11-05T08:33:17.568Z,100.00
2022-11-05T08:35:45.884Z,100.00
2022-11-05T08:38:17.423Z,100.00
2022-11-05T08:40:49.179Z,100.00
2022-11-05T08:43:17.253Z,100.00
2022-11-05T08:45:46.739Z,100.00
2022-11-05T08:48:17.261Z,100.00
2022-11-05T08:50:46.488Z,100.00
2022-11-05T08:53:16.506Z,96.38
2022-11-05T08:55:47.785Z,91.50
2022-11-05T08:58:17.408Z,88.41
2022-11-05T09:00:50.510Z,86.80
2022-11-05T09:03:21.499Z,86.72
2022-11-05T09:05:49.627Z,87.36
2022-11-05T09:08:20.798Z,84.89
2022-11-05T09:10:50.258Z,81.35
2022-11-05T09:13:20.429Z,79.56
2022-11-05T09:15:51.582Z,78.55
2022-11-05T09:18:21.908Z,78.22
2022-11-05T09:20:52.266Z,77.81
2022-11-05T09:23:20.766Z,79.23
2022-11-05T09:25:49.159Z,78.05
2022-11-05T09:28:19.255Z,74.75
2022-11-05T09:30:51.449Z,72.02
2022-11-05T09:33:21.635Z,73.30
2022-11-05T09:35:50.372Z,73.29
2022-11-05T09:38:18.610Z,74.19
2022-11-05T09:40:55.994Z,74.16
2022-11-05T09:43:31.803Z,70.98
2022-11-05T09:46:05.855Z,70.19
2022-11-05T09:48:35.953Z,68.98
2022-11-05T09:51:06.973Z,67.62
2022-11-05T09:53:41.819Z,69.35
2022-11-05T09:56:21.494Z,68.60
2022-11-05T09:58:57.245Z,67.10
2022-11-05T10:01:35.291Z,67.02
2022-11-05T10:04:09.450Z,64.98
2022-11-05T10:06:39.922Z,64.14
2022-11-05T10:09:13.206Z,63.17
2022-11-05T10:11:46.408Z,61.00
2022-11-05T10:14:20.975Z,60.18
2022-11-05T10:16:55.444Z,58.41
2022-11-05T10:19:28.297Z,59.23
2022-11-05T10:22:07.130Z,59.26
2022-11-05T10:24:36.134Z,60.36
2022-11-05T10:27:06.551Z,60.10
2022-11-05T10:29:36.503Z,59.05
2022-11-05T10:32:07.958Z,58.85
2022-11-05T10:34:39.729Z,58.97
2022-11-05T10:37:10.020Z,60.01
2022-11-05T10:39:38.075Z,59.72
2022-11-05T10:42:21.267Z,58.45
2022-11-05T10:44:58.512Z,58.93
2022-11-05T10:47:47.699Z,60.09
2022-11-05T10:50:20.030Z,57.56
2022-11-05T10:52:58.519Z,57.60
2022-11-05T10:55:29.700Z,58.25
2022-11-05T10:58:12.874Z,59.24
2022-11-05T11:00:41.664Z,59.76
2022-11-05T11:03:38.967Z,59.02
2022-11-05T11:06:18.575Z,57.85
2022-11-05T11:08:49.661Z,57.22
2022-11-05T11:11:29.480Z,56.45
2022-11-05T11:14:04.717Z,56.05
2022-11-05T11:16:38.093Z,55.74
2022-11-05T11:19:25.922Z,54.86
2022-11-05T11:22:19.380Z,55.49
2022-11-05T11:24:50.402Z,55.02
2022-11-05T11:27:23.943Z,56.40
2022-11-05T11:29:58.029Z,56.96
2022-11-05T11:32:29.381Z,56.52
2022-11-05T11:34:58.993Z,57.11
2022-11-05T11:37:30.019Z,57.87
2022-11-05T11:40:02.550Z,58.45
2022-11-05T11:42:36.937Z,57.61
2022-11-05T11:45:09.263Z,56.87
2022-11-05T11:47:44.294Z,55.90
2022-11-05T11:50:36.095Z,53.89
2022-11-05T11:53:28.199Z,53.39
2022-11-05T11:56:05.546Z,52.70
2022-11-05T11:58:52.389Z,52.38
2022-11-05T12:01:50.730Z,53.10
2022-11-05T12:04:28.737Z,53.62
2022-11-05T12:07:11.121Z,53.26
2022-11-05T12:09:58.661Z,54.54
2022-11-05T12:12:38.056Z,53.85
2022-11-05T12:15:36.364Z,53.16
2022-11-05T12:18:07.285Z,53.55
2022-11-05T12:20:57.949Z,54.10
2022-11-05T12:23:45.908Z,53.93
2022-11-05T12:26:24.443Z,54.41
2022-11-05T12:29:18.503Z,55.35
2022-11-05T12:31:58.322Z,56.41
2022-11-05T12:34:39.573Z,57.32
2022-11-05T12:37:23.660Z,57.41
2022-11-05T12:40:08.620Z,57.92
2022-11-05T12:42:50.825Z,58.07
2022-11-05T12:45:31.970Z,58.10
2022-11-05T12:48:17.522Z,57.80
2022-11-05T12:50:52.256Z,57.95
2022-11-05T12:53:42.795Z,58.30
2022-11-05T12:56:20.320Z,57.41
2022-11-05T12:58:55.314Z,57.32
2022-11-05T13:01:33.107Z,55.75
2022-11-05T13:04:06.981Z,55.75
2022-11-05T13:06:40.446Z,55.31
2022-11-05T13:09:15.019Z,55.15
2022-11-05T13:11:52.631Z,54.54
2022-11-05T13:14:26.610Z,54.28
2022-11-05T13:17:01.494Z,53.98
2022-11-05T13:19:34.786Z,54.36
2022-11-05T13:22:09.985Z,54.34
2022-11-05T13:24:43.470Z,54.53
2022-11-05T13:27:39.878Z,54.58
2022-11-05T13:30:14.342Z,54.90
2022-11-05T13:32:47.762Z,54.82
2022-11-05T13:35:19.056Z,54.81
2022-11-05T13:38:11.783Z,54.74
2022-11-05T13:40:50.260Z,55.15
2022-11-05T13:43:51.524Z,55.50
2022-11-05T13:46:47.101Z,57.07
2022-11-05T13:49:47.843Z,56.98
2022-11-05T13:52:39.284Z,56.91
2022-11-05T13:55:41.601Z,57.65
2022-11-05T13:58:46.788Z,57.29
2022-11-05T14:01:38.685Z,58.05
2022-11-05T14:04:08.490Z,57.71
2022-11-05T14:06:38.344Z,57.85
2022-11-05T14:09:12.998Z,59.05
2022-11-05T14:11:44.113Z,57.51
2022-11-05T14:14:22.976Z,57.62
2022-11-05T14:16:54.311Z,58.06
2022-11-05T14:19:52.330Z,57.85
2022-11-05T14:22:43.303Z,58.11
2022-11-05T14:26:03.433Z,58.11
2022-11-05T14:28:45.752Z,59.84
2022-11-05T14:32:07.178Z,60.89
2022-11-05T14:34:46.266Z,61.86
2022-11-05T14:37:26.463Z,63.61
2022-11-05T14:39:56.302Z,65.95
2022-11-05T14:42:27.947Z,67.95
2022-11-05T14:45:21.449Z,69.51
2022-11-05T14:47:56.468Z,71.06
2022-11-05T14:50:37.926Z,72.54
2022-11-05T14:53:13.282Z,73.57
2022-11-05T14:55:44.880Z,74.50
2022-11-05T14:58:35.830Z,76.28
2022-11-05T15:01:08.285Z,77.22
2022-11-05T15:04:12.575Z,78.29
2022-11-05T15:07:31.469Z,79.54
2022-11-05T15:10:09.834Z,80.59
2022-11-05T15:12:43.971Z,81.94
2022-11-05T15:15:22.339Z,82.95
2022-11-05T15:18:01.516Z,83.35
2022-11-05T15:20:40.124Z,83.94
2022-11-05T15:23:16.627Z,83.15
2022-11-05T15:25:53.441Z,84.70
2022-11-05T15:28:28.726Z,85.08
2022-11-05T15:30:59.355Z,85.32
2022-11-05T15:33:27.946Z,86.13
2022-11-05T15:35:56.488Z,87.62
2022-11-05T15:38:34.417Z,88.42
2022-11-05T15:41:05.325Z,89.18
2022-11-05T15:43:33.937Z,89.65
2022-11-05T15:46:04.287Z,90.15
2022-11-05T15:48:33.110Z,90.53
2022-11-05T15:51:01.661Z,91.84
2022-11-05T15:56:51.812Z,93.72
2022-11-05T15:59:21.713Z,94.48
2022-11-05T16:01:53.815Z,95.13
2022-11-05T16:04:26.260Z,94.74
2022-11-05T16:06:57.268Z,94.87
2022-11-05T16:09:29.198Z,93.87
2022-11-05T16:12:30.119Z,95.97
2022-11-05T16:15:00.787Z,97.06
2022-11-05T16:17:32.342Z,97.89
2022-11-05T16:20:00.859Z,97.41
2022-11-05T16:22:47.140Z,97.42
2022-11-05T16:25:42.384Z,97.25
2022-11-05T16:28:23.703Z,93.69
2022-11-05T16:31:00.979Z,95.58
2022-11-05T16:33:41.220Z,95.19
2022-11-05T16:36:10.739Z,92.17
2022-11-05T16:38:39.232Z,92.14
2022-11-05T16:41:14.908Z,92.38
2022-11-05T16:43:52.724Z,91.12
2022-11-05T16:46:21.954Z,91.33
2022-11-05T16:48:50.458Z,91.35
2022-11-05T16:51:23.342Z,91.97
2022-11-05T16:53:54.673Z,91.11
2022-11-05T16:56:26.633Z,90.47
2022-11-05T16:58:54.707Z,90.50
2022-11-05T17:01:24.251Z,90.92
2022-11-05T17:03:54.215Z,90.42
2022-11-05T17:06:23.438Z,91.34
2022-11-05T17:08:52.267Z,92.36
2022-11-05T17:11:22.087Z,91.83
2022-11-05T17:13:51.441Z,92.40
2022-11-05T17:16:19.472Z,92.63
2022-11-05T17:18:47.947Z,91.74
2022-11-05T17:21:15.803Z,93.32
2022-11-05T17:23:44.017Z,93.47
2022-11-05T17:26:13.729Z,94.50
2022-11-05T17:28:42.681Z,94.65
2022-11-05T17:31:17.511Z,94.29
2022-11-05T17:33:45.665Z,92.73
2022-11-05T17:36:16.825Z,92.67
2022-11-05T17:38:45.417Z,91.93
2022-11-05T17:41:14.513Z,91.67
2022-11-05T17:43:44.840Z,91.27
2022-11-05T17:46:16.648Z,91.29
2022-11-05T17:48:44.926Z,91.74
2022-11-05T17:51:16.515Z,92.22
2022-11-05T17:53:45.517Z,92.93
2022-11-05T17:56:24.745Z,92.85
2022-11-05T17:58:57.592Z,93.32
2022-11-05T18:01:29.885Z,93.44
2022-11-05T18:04:02.480Z,92.44
2022-11-05T18:06:36.080Z,89.48
2022-11-05T18:09:04.227Z,89.38
2022-11-05T18:11:32.660Z,89.93
2022-11-05T18:14:02.103Z,89.79
2022-11-05T18:16:31.765Z,90.10
2022-11-05T18:19:00.665Z,90.74
2022-11-05T18:21:29.256Z,91.82
2022-11-05T18:23:58.534Z,91.06
2022-11-05T18:26:26.609Z,92.07
2022-11-05T18:28:54.915Z,92.85
2022-11-05T18:31:23.750Z,93.59
2022-11-05T18:33:58.977Z,93.84
2022-11-05T18:36:31.743Z,94.13
2022-11-05T18:39:03.518Z,94.41
2022-11-05T18:41:32.351Z,93.11
2022-11-05T18:44:01.903Z,94.70
2022-11-05T18:46:56.592Z,94.66
2022-11-05T18:49:21.070Z,95.51
2022-11-05T18:51:50.055Z,96.89
2022-11-05T18:54:18.982Z,96.63
2022-11-05T18:56:49.156Z,96.26
2022-11-05T19:02:08.891Z,96.87
2022-11-05T19:04:38.666Z,97.03
2022-11-05T19:07:07.929Z,97.61
2022-11-05T19:09:37.236Z,96.37
2022-11-05T19:12:06.669Z,96.31
2022-11-05T19:14:35.279Z,96.48
2022-11-05T19:17:04.375Z,96.38
2022-11-05T19:19:33.015Z,97.44
2022-11-05T19:22:03.336Z,97.69
2022-11-05T19:24:31.628Z,97.82
2022-11-05T19:27:00.103Z,97.48
2022-11-05T19:29:28.473Z,98.13
2022-11-05T19:31:56.625Z,98.35
2022-11-05T19:34:25.519Z,99.61
2022-11-05T19:36:54.310Z,100.00
2022-11-05T19:39:24.788Z,100.00
2022-11-05T19:41:52.945Z,100.00
2022-11-05T19:44:21.209Z,100.00
2022-11-05T19:46:49.480Z,100.00
2022-11-05T19:49:17.910Z,100.00
2022-11-05T19:51:45.989Z,100.00
2022-11-05T19:54:14.168Z,100.00
2022-11-05T19:56:43.919Z,100.00
2022-11-05T19:59:13.450Z,100.00
2022-11-05T20:01:41.671Z,100.00
2022-11-05T20:04:12.152Z,100.00
2022-11-05T20:06:41.042Z,100.00
2022-11-05T20:09:21.627Z,100.00
2022-11-05T20:12:01.450Z,100.00
2022-11-05T20:14:30.037Z,100.00
2022-11-05T20:16:58.446Z,100.00
2022-11-05T20:19:27.593Z,100.00
2022-11-05T20:21:56.193Z,100.00
2022-11-05T20:24:25.896Z,100.00
2022-11-05T20:26:57.768Z,100.00
2022-11-05T20:29:33.900Z,100.00
2022-11-05T20:32:03.645Z,100.00
2022-11-05T20:34:32.784Z,100.00
2022-11-05T20:37:03.113Z,100.00
2022-11-05T20:39:31.848Z,100.00
2022-11-05T20:42:01.750Z,100.00
2022-11-05T20:44:30.128Z,100.00
2022-11-05T20:47:01.168Z,100.00
2022-11-05T20:49:29.533Z,100.00
2022-11-05T20:51:57.802Z,100.00
2022-11-05T20:54:26.002Z,100.00
2022-11-05T20:56:54.505Z,100.00
2022-11-05T20:59:24.107Z,100.00
2022-11-05T21:01:52.757Z,100.00
2022-11-05T21:04:21.124Z,100.00
2022-11-05T21:06:49.750Z,100.00
2022-11-05T21:09:19.893Z,100.00
2022-11-05T21:12:05.102Z,100.00
2022-11-05T21:14:34.945Z,100.00
2022-11-05T21:17:04.125Z,100.00
2022-11-05T21:19:33.655Z,100.00
2022-11-05T21:22:02.109Z,100.00
2022-11-05T21:24:31.511Z,100.00
2022-11-05T21:26:59.677Z,100.00
2022-11-05T21:29:28.173Z,100.00
2022-11-05T21:31:57.548Z,100.00
2022-11-05T21:34:25.898Z,100.00
2022-11-05T21:36:54.235Z,100.00
2022-11-05T21:39:22.351Z,100.00
2022-11-05T21:41:50.258Z,100.00
2022-11-05T21:44:18.413Z,100.00
2022-11-05T21:46:46.441Z,100.00
2022-11-05T21:49:17.321Z,100.00
2022-11-05T21:52:02.761Z,100.00
2022-11-05T21:54:48.564Z,100.00
2022-11-05T21:57:36.106Z,100.00
2022-11-05T22:00:06.958Z,100.00
2022-11-05T22:02:35.499Z,100.00
2022-11-05T22:05:07.471Z,100.00
2022-11-05T22:07:38.336Z,100.00
2022-11-05T22:10:16.681Z,100.00
2022-11-05T22:12:46.490Z,100.00
2022-11-05T22:15:15.318Z,100.00
2022-11-05T22:17:46.986Z,100.00
2022-11-05T22:20:17.563Z,100.00
2022-11-05T22:22:47.779Z,100.00
2022-11-05T22:25:16.310Z,100.00
2022-11-05T22:27:44.997Z,100.00
2022-11-05T22:30:15.179Z,100.00
2022-11-05T22:32:43.328Z,100.00
2022-11-05T22:35:11.478Z,100.00
2022-11-05T22:37:41.974Z,100.00
2022-11-05T22:40:10.981Z,100.00
2022-11-05T22:42:39.862Z,100.00
2022-11-05T22:45:09.052Z,100.00
2022-11-05T22:47:37.063Z,100.00
2022-11-05T22:50:06.071Z,100.00
2022-11-05T22:52:34.121Z,100.00
2022-11-05T22:55:06.317Z,100.00
2022-11-05T22:57:34.806Z,100.00
2022-11-05T23:00:03.560Z,100.00
2022-11-05T23:02:31.731Z,100.00
2022-11-05T23:05:01.071Z,100.00
2022-11-05T23:07:48.172Z,100.00
2022-11-05T23:10:35.506Z,100.00
2022-11-05T23:13:04.649Z,100.00
2022-11-05T23:15:50.874Z,100.00
2022-11-05T23:18:36.533Z,100.00
2022-11-05T23:21:36.750Z,100.00
2022-11-05T23:24:08.533Z,100.00
2022-11-05T23:26:52.846Z,100.00
2022-11-05T23:29:23.706Z,100.00
2022-11-05T23:32:10.335Z,100.00
2022-11-05T23:34:38.827Z,100.00
2022-11-05T23:37:24.845Z,100.00
2022-11-05T23:39:53.557Z,100.00
2022-11-05T23:42:40.220Z,100.00
2022-11-05T23:45:26.995Z,100.00
2022-11-05T23:48:13.493Z,100.00
2022-11-05T23:50:42.976Z,100.00
2022-11-05T23:53:12.005Z,100.00
2022-11-05T23:55:44.210Z,100.00
2022-11-05T23:58:13.976Z,100.00
